Osage River (Missouri), Bagnell (06926000)

StateMissouriLatestUnknown (28200 cfs)
RiverOsage RiverRatingObservedEstimated
Updated2020-02-25 14:15 (39 minutes ago)Flood - The river is flooding. Obstacles can be treacherous or deadly. The river should be avoided at this stage for casual trips and definitely for the inexperienced. Trips should be attempted only with protective gear and equipment.Flood(none)(none)
Discharge28200 cfs (median: 6530 cfs)High - The river is high and potentially dangerous, especially for the young and / or inexperienced. Normal stream obstacles are sometimes difficult to navigate. Extended distances can be attempted, but canoe travel may not be advisable.High(none)(none)
Height14.02 feetGood - Conditions are ideal for a canoe or kayak. Boats typically will drag on fewer than one-quarter of riffles, if at all, and portages are unnecessary or rare. Normal float lengths can be attempted without a problem.Good(none)(none)
TrendRising (rising over 24 hours)Low - River is low but can still be floated. Some riffles are okay but most come with significant dragging and might need a portage. Float lengths should be reduced to accommodate low flow, dragging, and portages.Low(none)(none)
USGSExternal icon USGS Site (External icon Google Maps)Poor - River is too low to float comfortably. Most or all riffles will drag or must be portaged and some obstacles (such as slick shelf rock) cause undue problems. Avoid the river at this stage for casual paddling trips.Poor(none)(none)

Trending Data

Plot Image

Trips for Osage River (Missouri), Bagnell (06926000)

DateStartEndDistanceConditionDischargeHeightFishingDetails

A total of 0 rows are displayed.

Condition Descriptions

Fishing Conditions

Fish Species

Notes

Classic Trip List

The classic River Trips application is still available for use. It is updated with the new system using a data retrofit. It is no longer maintained. The original River Trips application is no longer updated (as of 1 Dec 2016) but can be checked for errors or for the condition of the data before it was converted to the new system.

Gauge Data Table

ObservationHeightDischargeMaximum
Discharge
Minimum
Discharge
Mean
Discharge
P05P10P20P25P50
(Median)
P75P80P90P95
2020-02-25 14:15 14.02 28200 40300 (1975) 278 (1964) 11600 490 608 1160 2130 6530 19500 24300 29200 31600
2020-02-25 13:15 13.99 28100 40300 (1975) 278 (1964) 11600 490 608 1160 2130 6530 19500 24300 29200 31600
2020-02-25 12:15 13.98 28100 40300 (1975) 278 (1964) 11600 490 608 1160 2130 6530 19500 24300 29200 31600
2020-02-25 11:15 13.94 27900 40300 (1975) 278 (1964) 11600 490 608 1160 2130 6530 19500 24300 29200 31600
2020-02-25 10:15 13.91 27800 40300 (1975) 278 (1964) 11600 490 608 1160 2130 6530 19500 24300 29200 31600
2020-02-25 09:15 13.87 27700 40300 (1975) 278 (1964) 11600 490 608 1160 2130 6530 19500 24300 29200 31600
2020-02-25 08:15 13.82 27600 40300 (1975) 278 (1964) 11600 490 608 1160 2130 6530 19500 24300 29200 31600
2020-02-25 07:15 13.75 27300 40300 (1975) 278 (1964) 11600 490 608 1160 2130 6530 19500 24300 29200 31600
2020-02-25 06:15 13.67 27100 40300 (1975) 278 (1964) 11600 490 608 1160 2130 6530 19500 24300 29200 31600
2020-02-25 05:15 13.55 26700 40300 (1975) 278 (1964) 11600 490 608 1160 2130 6530 19500 24300 29200 31600
2020-02-25 04:15 13.33 26100 40300 (1975) 278 (1964) 11600 490 608 1160 2130 6530 19500 24300 29200 31600
2020-02-25 03:15 13.11 25400 40300 (1975) 278 (1964) 11600 490 608 1160 2130 6530 19500 24300 29200 31600
2020-02-25 02:15 12.83 24500 40300 (1975) 278 (1964) 11600 490 608 1160 2130 6530 19500 24300 29200 31600
2020-02-25 01:15 12.39 23200 40300 (1975) 278 (1964) 11600 490 608 1160 2130 6530 19500 24300 29200 31600
2020-02-25 00:15 11.67 21200 40300 (1975) 278 (1964) 11600 490 608 1160 2130 6530 19500 24300 29200 31600
2020-02-24 23:15 10.22 17200 50100 (1985) 342 (1931) 11500 476 895 2050 2750 7770 18000 20500 27400 33900
2020-02-24 22:15 9.22 14600 50100 (1985) 342 (1931) 11500 476 895 2050 2750 7770 18000 20500 27400 33900
2020-02-24 21:15 10.19 17100 50100 (1985) 342 (1931) 11500 476 895 2050 2750 7770 18000 20500 27400 33900
2020-02-24 20:15 9.76 16000 50100 (1985) 342 (1931) 11500 476 895 2050 2750 7770 18000 20500 27400 33900
2020-02-24 19:15 10.05 16800 50100 (1985) 342 (1931) 11500 476 895 2050 2750 7770 18000 20500 27400 33900
2020-02-24 18:15 9.90 16400 50100 (1985) 342 (1931) 11500 476 895 2050 2750 7770 18000 20500 27400 33900
2020-02-24 17:15 10.47 17900 50100 (1985) 342 (1931) 11500 476 895 2050 2750 7770 18000 20500 27400 33900
2020-02-24 16:15 10.68 18400 50100 (1985) 342 (1931) 11500 476 895 2050 2750 7770 18000 20500 27400 33900
2020-02-24 15:15 10.62 18300 50100 (1985) 342 (1931) 11500 476 895 2050 2750 7770 18000 20500 27400 33900
2020-02-24 14:15 11.14 19700 50100 (1985) 342 (1931) 11500 476 895 2050 2750 7770 18000 20500 27400 33900
2020-02-24 13:15 12.24 22800 50100 (1985) 342 (1931) 11500 476 895 2050 2750 7770 18000 20500 27400 33900
2020-02-24 12:15 13.32 26000 50100 (1985) 342 (1931) 11500 476 895 2050 2750 7770 18000 20500 27400 33900
2020-02-24 11:15 12.93 24800 50100 (1985) 342 (1931) 11500 476 895 2050 2750 7770 18000 20500 27400 33900
2020-02-24 10:15 12.51 23600 50100 (1985) 342 (1931) 11500 476 895 2050 2750 7770 18000 20500 27400 33900
2020-02-24 09:15 11.62 21000 50100 (1985) 342 (1931) 11500 476 895 2050 2750 7770 18000 20500 27400 33900
2020-02-24 08:15 11.56 20800 50100 (1985) 342 (1931) 11500 476 895 2050 2750 7770 18000 20500 27400 33900
2020-02-24 07:15 10.88 19000 50100 (1985) 342 (1931) 11500 476 895 2050 2750 7770 18000 20500 27400 33900
2020-02-24 06:15 10.45 17800 50100 (1985) 342 (1931) 11500 476 895 2050 2750 7770 18000 20500 27400 33900
2020-02-24 05:15 11.13 19600 50100 (1985) 342 (1931) 11500 476 895 2050 2750 7770 18000 20500 27400 33900
2020-02-24 04:15 10.19 17100 50100 (1985) 342 (1931) 11500 476 895 2050 2750 7770 18000 20500 27400 33900
2020-02-24 03:15 10.54 18000 50100 (1985) 342 (1931) 11500 476 895 2050 2750 7770 18000 20500 27400 33900
2020-02-24 02:15 10.70 18500 50100 (1985) 342 (1931) 11500 476 895 2050 2750 7770 18000 20500 27400 33900
2020-02-24 01:15 10.78 18700 50100 (1985) 342 (1931) 11500 476 895 2050 2750 7770 18000 20500 27400 33900
2020-02-24 00:15 10.39 17600 50100 (1985) 342 (1931) 11500 476 895 2050 2750 7770 18000 20500 27400 33900
2020-02-23 23:15 10.09 16900 43900 (1985) 342 (1931) 11400 466 670 1780 2470 8000 18000 21900 27600 34500
2020-02-23 22:15 9.78 16100 43900 (1985) 342 (1931) 11400 466 670 1780 2470 8000 18000 21900 27600 34500
2020-02-23 21:15 10.08 16800 43900 (1985) 342 (1931) 11400 466 670 1780 2470 8000 18000 21900 27600 34500
2020-02-23 20:15 9.82 16200 43900 (1985) 342 (1931) 11400 466 670 1780 2470 8000 18000 21900 27600 34500
2020-02-23 19:15 10.59 18200 43900 (1985) 342 (1931) 11400 466 670 1780 2470 8000 18000 21900 27600 34500
2020-02-23 18:15 10.76 18600 43900 (1985) 342 (1931) 11400 466 670 1780 2470 8000 18000 21900 27600 34500
2020-02-23 17:15 9.66 15800 43900 (1985) 342 (1931) 11400 466 670 1780 2470 8000 18000 21900 27600 34500
2020-02-23 16:15 8.97 14000 43900 (1985) 342 (1931) 11400 466 670 1780 2470 8000 18000 21900 27600 34500
2020-02-23 15:15 9.02 14100 43900 (1985) 342 (1931) 11400 466 670 1780 2470 8000 18000 21900 27600 34500
2020-02-23 14:15 9.04 14200 43900 (1985) 342 (1931) 11400 466 670 1780 2470 8000 18000 21900 27600 34500
2020-02-23 13:15 9.01 14100 43900 (1985) 342 (1931) 11400 466 670 1780 2470 8000 18000 21900 27600 34500
2020-02-23 12:15 8.55 13000 43900 (1985) 342 (1931) 11400 466 670 1780 2470 8000 18000 21900 27600 34500
2020-02-23 11:15 8.85 13700 43900 (1985) 342 (1931) 11400 466 670 1780 2470 8000 18000 21900 27600 34500
2020-02-23 10:15 9.21 14600 43900 (1985) 342 (1931) 11400 466 670 1780 2470 8000 18000 21900 27600 34500
2020-02-23 09:15 9.29 14800 43900 (1985) 342 (1931) 11400 466 670 1780 2470 8000 18000 21900 27600 34500
2020-02-23 08:15 8.93 13900 43900 (1985) 342 (1931) 11400 466 670 1780 2470 8000 18000 21900 27600 34500
2020-02-23 07:15 8.41 12700 43900 (1985) 342 (1931) 11400 466 670 1780 2470 8000 18000 21900 27600 34500
2020-02-23 06:15 8.49 12900 43900 (1985) 342 (1931) 11400 466 670 1780 2470 8000 18000 21900 27600 34500
2020-02-23 05:15 8.15 12100 43900 (1985) 342 (1931) 11400 466 670 1780 2470 8000 18000 21900 27600 34500
2020-02-23 04:15 7.68 11000 43900 (1985) 342 (1931) 11400 466 670 1780 2470 8000 18000 21900 27600 34500
2020-02-23 03:15 8.08 11900 43900 (1985) 342 (1931) 11400 466 670 1780 2470 8000 18000 21900 27600 34500
2020-02-23 02:15 7.13 9780 43900 (1985) 342 (1931) 11400 466 670 1780 2470 8000 18000 21900 27600 34500
2020-02-23 01:15 7.51 10600 43900 (1985) 342 (1931) 11400 466 670 1780 2470 8000 18000 21900 27600 34500
2020-02-23 00:15 8.22 12200 43900 (1985) 342 (1931) 11400 466 670 1780 2470 8000 18000 21900 27600 34500
2020-02-22 23:15 8.51 12900 53400 (1949) 238 (1981) 10600 440 636 2350 2780 6770 15700 18800 25300 31500
2020-02-22 22:15 8.08 11900 53400 (1949) 238 (1981) 10600 440 636 2350 2780 6770 15700 18800 25300 31500
2020-02-22 21:15 8.77 13500 53400 (1949) 238 (1981) 10600 440 636 2350 2780 6770 15700 18800 25300 31500
2020-02-22 20:15 1 16600 53400 (1949) 238 (1981) 10600 440 636 2350 2780 6770 15700 18800 25300 31500
2020-02-22 19:15 9.21 14600 53400 (1949) 238 (1981) 10600 440 636 2350 2780 6770 15700 18800 25300 31500
2020-02-22 18:15 9.02 14100 53400 (1949) 238 (1981) 10600 440 636 2350 2780 6770 15700 18800 25300 31500
2020-02-22 17:15 7.94 11600 53400 (1949) 238 (1981) 10600 440 636 2350 2780 6770 15700 18800 25300 31500
2020-02-22 16:15 8.34 12500 53400 (1949) 238 (1981) 10600 440 636 2350 2780 6770 15700 18800 25300 31500
2020-02-22 15:15 8.47 12800 53400 (1949) 238 (1981) 10600 440 636 2350 2780 6770 15700 18800 25300 31500
2020-02-22 14:15 8.10 11900 53400 (1949) 238 (1981) 10600 440 636 2350 2780 6770 15700 18800 25300 31500
2020-02-22 13:15 8.02 11800 53400 (1949) 238 (1981) 10600 440 636 2350 2780 6770 15700 18800 25300 31500
2020-02-22 12:15 8.37 12600 53400 (1949) 238 (1981) 10600 440 636 2350 2780 6770 15700 18800 25300 31500
2020-02-22 11:15 8.70 13400 53400 (1949) 238 (1981) 10600 440 636 2350 2780 6770 15700 18800 25300 31500
2020-02-22 10:15 9.66 15800 53400 (1949) 238 (1981) 10600 440 636 2350 2780 6770 15700 18800 25300 31500
2020-02-22 09:15 9.11 14400 53400 (1949) 238 (1981) 10600 440 636 2350 2780 6770 15700 18800 25300 31500
2020-02-22 08:15 9.97 16500 53400 (1949) 238 (1981) 10600 440 636 2350 2780 6770 15700 18800 25300 31500
2020-02-22 07:15 11.23 19900 53400 (1949) 238 (1981) 10600 440 636 2350 2780 6770 15700 18800 25300 31500
2020-02-22 06:15 10.89 19000 53400 (1949) 238 (1981) 10600 440 636 2350 2780 6770 15700 18800 25300 31500
2020-02-22 05:15 11.15 19700 53400 (1949) 238 (1981) 10600 440 636 2350 2780 6770 15700 18800 25300 31500
2020-02-22 04:15 10.52 18000 53400 (1949) 238 (1981) 10600 440 636 2350 2780 6770 15700 18800 25300 31500
2020-02-22 03:15 9.43 15200 53400 (1949) 238 (1981) 10600 440 636 2350 2780 6770 15700 18800 25300 31500
2020-02-22 02:15 9.74 16000 53400 (1949) 238 (1981) 10600 440 636 2350 2780 6770 15700 18800 25300 31500
2020-02-22 01:15 10.80 18700 53400 (1949) 238 (1981) 10600 440 636 2350 2780 6770 15700 18800 25300 31500
2020-02-22 00:15 11.36 20300 53400 (1949) 238 (1981) 10600 440 636 2350 2780 6770 15700 18800 25300 31500
2020-02-21 23:15 12.24 22800 58100 (1949) 290 (1931) 10200 465 732 2140 3010 7100 13700 16800 23900 31600
2020-02-21 22:15 12.60 23900 58100 (1949) 290 (1931) 10200 465 732 2140 3010 7100 13700 16800 23900 31600
2020-02-21 21:15 12.49 23500 58100 (1949) 290 (1931) 10200 465 732 2140 3010 7100 13700 16800 23900 31600
2020-02-21 20:15 12.37 23200 58100 (1949) 290 (1931) 10200 465 732 2140 3010 7100 13700 16800 23900 31600
2020-02-21 19:15 12.21 22700 58100 (1949) 290 (1931) 10200 465 732 2140 3010 7100 13700 16800 23900 31600
2020-02-21 18:15 11.42 20500 58100 (1949) 290 (1931) 10200 465 732 2140 3010 7100 13700 16800 23900 31600
2020-02-21 17:15 9.46 15200 58100 (1949) 290 (1931) 10200 465 732 2140 3010 7100 13700 16800 23900 31600
2020-02-21 16:15 8.50 12900 58100 (1949) 290 (1931) 10200 465 732 2140 3010 7100 13700 16800 23900 31600
2020-02-21 15:15 8.46 12800 58100 (1949) 290 (1931) 10200 465 732 2140 3010 7100 13700 16800 23900 31600
2020-02-21 14:15 8.53 13000 58100 (1949) 290 (1931) 10200 465 732 2140 3010 7100 13700 16800 23900 31600
2020-02-21 13:15 9.17 14500 58100 (1949) 290 (1931) 10200 465 732 2140 3010 7100 13700 16800 23900 31600
2020-02-21 12:15 9.69 15800 58100 (1949) 290 (1931) 10200 465 732 2140 3010 7100 13700 16800 23900 31600
2020-02-21 11:15 10.64 18300 58100 (1949) 290 (1931) 10200 465 732 2140 3010 7100 13700 16800 23900 31600
2020-02-21 10:15 10.63 18300 58100 (1949) 290 (1931) 10200 465 732 2140 3010 7100 13700 16800 23900 31600
2020-02-21 09:15 12.06 22300 58100 (1949) 290 (1931) 10200 465 732 2140 3010 7100 13700 16800 23900 31600
2020-02-21 08:15 12.90 24700 58100 (1949) 290 (1931) 10200 465 732 2140 3010 7100 13700 16800 23900 31600
2020-02-21 07:15 12.58 23800 58100 (1949) 290 (1931) 10200 465 732 2140 3010 7100 13700 16800 23900 31600
2020-02-21 06:15 11.98 22000 58100 (1949) 290 (1931) 10200 465 732 2140 3010 7100 13700 16800 23900 31600
2020-02-21 05:15 11.38 20300 58100 (1949) 290 (1931) 10200 465 732 2140 3010 7100 13700 16800 23900 31600
2020-02-21 04:15 11.53 20800 58100 (1949) 290 (1931) 10200 465 732 2140 3010 7100 13700 16800 23900 31600
2020-02-21 03:15 11.78 21500 58100 (1949) 290 (1931) 10200 465 732 2140 3010 7100 13700 16800 23900 31600
2020-02-21 02:15 11.09 19500 58100 (1949) 290 (1931) 10200 465 732 2140 3010 7100 13700 16800 23900 31600
2020-02-21 01:15 10.82 18800 58100 (1949) 290 (1931) 10200 465 732 2140 3010 7100 13700 16800 23900 31600
2020-02-21 00:15 10.12 16900 58100 (1949) 290 (1931) 10200 465 732 2140 3010 7100 13700 16800 23900 31600
2020-02-20 23:15 10.46 17800 61200 (1949) 342 (1931) 10100 516 619 1020 2130 7080 15300 18300 21900 30100
2020-02-20 22:15 9.34 14900 61200 (1949) 342 (1931) 10100 516 619 1020 2130 7080 15300 18300 21900 30100
2020-02-20 21:15 10.64 18300 61200 (1949) 342 (1931) 10100 516 619 1020 2130 7080 15300 18300 21900 30100
2020-02-20 20:15 10.62 18300 61200 (1949) 342 (1931) 10100 516 619 1020 2130 7080 15300 18300 21900 30100
2020-02-20 19:15 9.66 15800 61200 (1949) 342 (1931) 10100 516 619 1020 2130 7080 15300 18300 21900 30100
2020-02-20 18:15 9.74 16000 61200 (1949) 342 (1931) 10100 516 619 1020 2130 7080 15300 18300 21900 30100
2020-02-20 17:15 8.54 13000 61200 (1949) 342 (1931) 10100 516 619 1020 2130 7080 15300 18300 21900 30100
2020-02-20 16:15 8.50 12900 61200 (1949) 342 (1931) 10100 516 619 1020 2130 7080 15300 18300 21900 30100
2020-02-20 15:15 8.66 13300 61200 (1949) 342 (1931) 10100 516 619 1020 2130 7080 15300 18300 21900 30100
2020-02-20 14:15 8.64 13200 61200 (1949) 342 (1931) 10100 516 619 1020 2130 7080 15300 18300 21900 30100
2020-02-20 13:15 9.05 14200 61200 (1949) 342 (1931) 10100 516 619 1020 2130 7080 15300 18300 21900 30100
2020-02-20 12:15 9.94 16500 61200 (1949) 342 (1931) 10100 516 619 1020 2130 7080 15300 18300 21900 30100
2020-02-20 11:15 10.64 18300 61200 (1949) 342 (1931) 10100 516 619 1020 2130 7080 15300 18300 21900 30100
2020-02-20 10:15 10.17 17100 61200 (1949) 342 (1931) 10100 516 619 1020 2130 7080 15300 18300 21900 30100
2020-02-20 09:15 10.95 19200 61200 (1949) 342 (1931) 10100 516 619 1020 2130 7080 15300 18300 21900 30100
2020-02-20 08:15 11.24 20000 61200 (1949) 342 (1931) 10100 516 619 1020 2130 7080 15300 18300 21900 30100
2020-02-20 07:15 10.48 17900 61200 (1949) 342 (1931) 10100 516 619 1020 2130 7080 15300 18300 21900 30100
2020-02-20 06:15 9.40 15100 61200 (1949) 342 (1931) 10100 516 619 1020 2130 7080 15300 18300 21900 30100
2020-02-20 05:15 9.65 15700 61200 (1949) 342 (1931) 10100 516 619 1020 2130 7080 15300 18300 21900 30100
2020-02-20 04:15 10.41 17700 61200 (1949) 342 (1931) 10100 516 619 1020 2130 7080 15300 18300 21900 30100
2020-02-20 03:15 11.58 20900 61200 (1949) 342 (1931) 10100 516 619 1020 2130 7080 15300 18300 21900 30100
2020-02-20 02:15 11.25 20000 61200 (1949) 342 (1931) 10100 516 619 1020 2130 7080 15300 18300 21900 30100
2020-02-20 01:15 10.96 19200 61200 (1949) 342 (1931) 10100 516 619 1020 2130 7080 15300 18300 21900 30100
2020-02-20 00:15 10.83 18800 61200 (1949) 342 (1931) 10100 516 619 1020 2130 7080 15300 18300 21900 30100
2020-02-19 23:15 11.10 19600 62700 (1949) 374 (1967) 10200 479 621 1530 1820 7540 17000 18600 24400 31200
2020-02-19 22:15 10.02 16700 62700 (1949) 374 (1967) 10200 479 621 1530 1820 7540 17000 18600 24400 31200
2020-02-19 21:15 10.24 17300 62700 (1949) 374 (1967) 10200 479 621 1530 1820 7540 17000 18600 24400 31200
2020-02-19 20:15 10.66 18400 62700 (1949) 374 (1967) 10200 479 621 1530 1820 7540 17000 18600 24400 31200
2020-02-19 19:15 11.22 19900 62700 (1949) 374 (1967) 10200 479 621 1530 1820 7540 17000 18600 24400 31200
2020-02-19 18:15 11.20 19800 62700 (1949) 374 (1967) 10200 479 621 1530 1820 7540 17000 18600 24400 31200
2020-02-19 17:15 10.50 17900 62700 (1949) 374 (1967) 10200 479 621 1530 1820 7540 17000 18600 24400 31200
2020-02-19 16:15 1 16600 62700 (1949) 374 (1967) 10200 479 621 1530 1820 7540 17000 18600 24400 31200
2020-02-19 15:15 10.14 17000 62700 (1949) 374 (1967) 10200 479 621 1530 1820 7540 17000 18600 24400 31200
2020-02-19 14:15 10.26 17300 62700 (1949) 374 (1967) 10200 479 621 1530 1820 7540 17000 18600 24400 31200
2020-02-19 13:15 10.13 17000 62700 (1949) 374 (1967) 10200 479 621 1530 1820 7540 17000 18600 24400 31200
2020-02-19 12:15 10.11 16900 62700 (1949) 374 (1967) 10200 479 621 1530 1820 7540 17000 18600 24400 31200
2020-02-19 11:15 10.86 18900 62700 (1949) 374 (1967) 10200 479 621 1530 1820 7540 17000 18600 24400 31200
2020-02-19 10:15 11.03 19400 62700 (1949) 374 (1967) 10200 479 621 1530 1820 7540 17000 18600 24400 31200
2020-02-19 09:15 11.12 19600 62700 (1949) 374 (1967) 10200 479 621 1530 1820 7540 17000 18600 24400 31200
2020-02-19 08:15 10.64 18300 62700 (1949) 374 (1967) 10200 479 621 1530 1820 7540 17000 18600 24400 31200
2020-02-19 07:15 10.46 17800 62700 (1949) 374 (1967) 10200 479 621 1530 1820 7540 17000 18600 24400 31200
2020-02-19 06:15 9.84 16200 62700 (1949) 374 (1967) 10200 479 621 1530 1820 7540 17000 18600 24400 31200
2020-02-19 05:15 10.26 17300 62700 (1949) 374 (1967) 10200 479 621 1530 1820 7540 17000 18600 24400 31200
2020-02-19 04:15 10.53 18000 62700 (1949) 374 (1967) 10200 479 621 1530 1820 7540 17000 18600 24400 31200
2020-02-19 03:15 10.73 18600 62700 (1949) 374 (1967) 10200 479 621 1530 1820 7540 17000 18600 24400 31200
2020-02-19 02:15 10.65 18300 62700 (1949) 374 (1967) 10200 479 621 1530 1820 7540 17000 18600 24400 31200
2020-02-19 01:15 10.41 17700 62700 (1949) 374 (1967) 10200 479 621 1530 1820 7540 17000 18600 24400 31200
2020-02-19 00:15 10.08 16800 62700 (1949) 374 (1967) 10200 479 621 1530 1820 7540 17000 18600 24400 31200
2020-02-18 23:15 9.38 15000 62300 (1949) 342 (1964) 9230 465 613 1080 1660 5900 13700 15600 21900 28200
2020-02-18 22:15 9.97 16500 62300 (1949) 342 (1964) 9230 465 613 1080 1660 5900 13700 15600 21900 28200
2020-02-18 21:15 10.89 19000 62300 (1949) 342 (1964) 9230 465 613 1080 1660 5900 13700 15600 21900 28200
2020-02-18 20:15 11.08 19500 62300 (1949) 342 (1964) 9230 465 613 1080 1660 5900 13700 15600 21900 28200
2020-02-18 19:15 10.94 19100 62300 (1949) 342 (1964) 9230 465 613 1080 1660 5900 13700 15600 21900 28200
2020-02-18 18:15 10.78 18700 62300 (1949) 342 (1964) 9230 465 613 1080 1660 5900 13700 15600 21900 28200
2020-02-18 17:15 10.57 18100 62300 (1949) 342 (1964) 9230 465 613 1080 1660 5900 13700 15600 21900 28200
2020-02-18 16:15 10.52 18000 62300 (1949) 342 (1964) 9230 465 613 1080 1660 5900 13700 15600 21900 28200
2020-02-18 15:15 10.44 17800 62300 (1949) 342 (1964) 9230 465 613 1080 1660 5900 13700 15600 21900 28200
2020-02-18 14:15 9.95 16500 62300 (1949) 342 (1964) 9230 465 613 1080 1660 5900 13700 15600 21900 28200
2020-02-18 13:15 9.99 16600 62300 (1949) 342 (1964) 9230 465 613 1080 1660 5900 13700 15600 21900 28200
2020-02-18 12:15 10.17 17100 62300 (1949) 342 (1964) 9230 465 613 1080 1660 5900 13700 15600 21900 28200
2020-02-18 11:15 9.71 15900 62300 (1949) 342 (1964) 9230 465 613 1080 1660 5900 13700 15600 21900 28200
2020-02-18 10:15 9.21 14600 62300 (1949) 342 (1964) 9230 465 613 1080 1660 5900 13700 15600 21900 28200
2020-02-18 09:15 9.40 15100 62300 (1949) 342 (1964) 9230 465 613 1080 1660 5900 13700 15600 21900 28200
2020-02-18 08:15 8.82 13700 62300 (1949) 342 (1964) 9230 465 613 1080 1660 5900 13700 15600 21900 28200
2020-02-18 07:15 8.19 12200 62300 (1949) 342 (1964) 9230 465 613 1080 1660 5900 13700 15600 21900 28200
2020-02-18 06:15 8.08 11900 62300 (1949) 342 (1964) 9230 465 613 1080 1660 5900 13700 15600 21900 28200
2020-02-18 05:15 7.53 10700 62300 (1949) 342 (1964) 9230 465 613 1080 1660 5900 13700 15600 21900 28200
2020-02-18 04:15 7.56 10700 62300 (1949) 342 (1964) 9230 465 613 1080 1660 5900 13700 15600 21900 28200
2020-02-18 03:15 7.61 10800 62300 (1949) 342 (1964) 9230 465 613 1080 1660 5900 13700 15600 21900 28200
2020-02-18 02:15 7.74 11100 62300 (1949) 342 (1964) 9230 465 613 1080 1660 5900 13700 15600 21900 28200
2020-02-18 01:15 7.76 11200 62300 (1949) 342 (1964) 9230 465 613 1080 1660 5900 13700 15600 21900 28200
2020-02-18 00:15 7.96 11600 62300 (1949) 342 (1964) 9230 465 613 1080 1660 5900 13700 15600 21900 28200

A total of 183 rows are displayed for years 1931 through 2019.